mattdh12's sites:

title views votes rating creation
?conan news 1,829 60 (3.93)  2013-04-01
?roulette 5,619 95 (4.47)  2013-01-06
?my new text message notification sound 1,020 31 (3.74)  2012-07-22
?bob dole gets a haircut 2,188 75 (4.09)  2011-07-18
?tampa bay opening day 1,357 41 (4.27)  2011-04-12
?clock tower ringing OF THE FUTURE 1,609 37 (4.19)  2010-11-05
?record sounds: the record 1,375 32 (4.25)  2010-04-07
?winston churchill revenge part 2 - WINSTON CHU... 956 26 (4.35)  2009-10-24
?winston churchill revenge part 1 - WINSTON CHU... 1,397 22 (4.18)  2009-10-24
?Homeless People HATE the Super Bowl 1,065 55 (4.33)  2009-09-02
?tourney3: cone n jokes for the metal demographic 913 23 (4.48)  2009-07-26
?tourney3: shakespeare's forgotten last dram... 1,329 75 (4.07)  2009-07-16
?Lady Gaga - Poker Face (a Kevin Federline remix) 6,034 71 (3.96)  2009-03-22
?fight themed ytmnd for the photoshop tournament c... 1,142 43 (4.19)  2009-01-18
?(nsfw) 2008 yelling bee 3,363 167 (4.01)  2008-11-16
?mario makes a sandwich 23,024 743 (4.25)  2008-08-13
?best ytnmd ever 3,889 146 (4.49)  2008-07-14
?3:00 drinkin dat soda 1,242 45 (4.22)  2008-06-02
?(nsfw) idiot hallo"weiner" "tps&quot... 3,806 125 (3.90)  2008-05-29
?mitch hedberg "moves tha crowd" (with l... 1,896 44 (4.30)  2008-04-22
?Tiger Woods Putt To Win Arnie Palson Tourname... 3,519 61 (4.16)  2008-04-03
?"u"tube duel 1,923 99 (4.01)  2008-03-03
?work safety 3,650 218 (4.14)  2008-01-20
?shaq gives birth 8,640 332 (4.11)  2008-01-01
?guy who milks cows grabs the wrong bucket and a... 2,907 87 (4.21)  2007-12-17
?raige aganest the machines final concert [full video] ... 1,011 40 (4.13)  2007-12-09
?trebeks thanksgiving 1,124 45 (4.11)  2007-11-23
?shaq zone 31,426 976 (4.42)  2007-11-12
?Part 3: "Funny Show: The Show": Epis... 524 28 (4.21)  2007-11-05
?Part 2: "Funny Show: The Show": Epis... 506 24 (4.17)  2007-11-05
?Part 1: "Funny Show: The Show": Epis... 2,160 85 (4.21)  2007-11-05
?the patty melt song 539 21 (3.76)  2007-10-18
?Mario Gets Revenge On Neo 1,184 47 (4.06)  2007-10-15
?HOOOOOOOONK! OOOOOOOOH! 1,373 45 (4.38)  2007-10-12
?(nsfw) kramer gets the wrong script but it doesnt m... 5,178 106 (4.14)  2007-10-06
?[b](nsfw)[/b] Alternate Ending to the Hit Film "... 21,531 90 (4.14)  2007-09-21
?PART 1: BEST BEATS (i win, best cannot be BE... 552 32 (4.09)  2007-09-13
?tight 610 24 (3.83)  2007-09-08
?Sp"y": "der man" 4 IN 3-D 863 25 (4.28)  2007-08-25
?Your Mom ft. Dyslexia - Light My Fire [LIVE] 837 45 (3.89)  2007-08-19
?scene from ""A Jerk"" 545 29 (3.97)  2007-08-18
?doctor gets sunburned and gives sun a "taste... 3,182 156 (4.07)  2007-08-09
?bob barker as a contestant on the new price is right 4,628 80 (4.01)  2007-07-17
?captain jean luc picard plays 3D Pinball for Window... 4,031 69 (3.99)  2007-07-08
?cant brake treadmill guys stride 753 27 (3.30)  2007-07-03
?(nsfw) blank space 1,909 76 (3.99)  2007-06-29
?exciting infinite lap race 743 25 (4.04)  2007-06-12
?funky furniture 1,443 89 (3.83)  2007-06-09
?a biker jumps too far 1,091 54 (4.17)  2007-05-25
?Ending to Se7en in German (with subtitles) 1,074 33 (4.00)  2007-05-18
?carlos mencia steals from websters joke book? 3,544 35 (4.11)  2007-05-12
?a plate fight for the ages 969 37 (3.89)  2007-05-07
?my title was too long so i put it in the description 10,230 209 (3.89)  2007-05-06
?YTMND.dot.fce 927 62 (3.87)  2007-05-02
?(nsfw) jared does the 30 second version of a comm... 2,843 107 (3.96)  2007-05-01
?extreme street jumping with big daddy gramps 767 17 (3.88)  2007-04-28
?put hat on "head" 674 34 (4.15)  2007-04-11
?pizza guy performs coltrane but is blWHOAn awa... 2,748 44 (4.25)  2007-04-10
?mitch hedberg says some words but the crowd doe... 972 30 (3.57)  2007-04-04
?(nsfw) i get my first birdie in tiger woods 2007 and fe... 3,070 57 (4.05)  2007-04-04
?Photoshop Contest 1,447 40 (3.73)  2007-03-28
?chief (updated title, no longer says dew army in par... 702 29 (3.90)  2007-03-25
?(nsfw) customer tries to order bread but the waiter ... 2,192 37 (3.92)  2007-03-21
?We just might be trapped 707 27 (3.67)  2007-03-19
?my grandpa experiments with a snowy sandwich be... 2,622 38 (3.89)  2007-03-18
?If the Movie Speed was Realistic 909 37 (4.14)  2007-03-13
?Comedy General Hospital with Major Budget Cuts In... 788 31 (4.03)  2007-03-07
?Picture Time at the Library 650 35 (3.49)  2007-03-05
?I AM GOING TO SUE YOU'R CAT!!! a dra... 3,490 41 (3.39)  2007-03-04
?My Balloons and Me 893 39 (4.31)  2007-02-26
?Macromedia Flash Noise Tutorial 2,401 61 (3.85)  2007-02-21
?A NEW FAD SITE LOL FOR THE NEW FAD 955 52 (3.94)  2007-02-20
?My Favorite Kill Bill Scene 2,967 76 (4.13)  2007-02-16
?(nsfw) AAHHK 1,083 32 (4.22)  2007-02-15
?LAUGHING CLOCK NO WAY LOL NOT FAKE 1,212 39 (3.82)  2007-02-13
?Bart's Mortal Enemy 15,980 357 (3.79)  2007-02-11
?THE AXE EFFECT 701 18 (3.61)  2007-02-11
?scanimation 736 37 (4.16)  2007-02-09
?THREE MINUTE COMIXS 1,015 32 (4.06)  2007-02-07
?THE SECOND FINAL BATTLE 1,198 32 (4.09)  2007-02-06
?Popular 626 33 (4.15)  2007-02-04
?Funeral 1,456 45 (4.16)  2007-01-28
?local on the 8s? more like...local voat 5 on this ytm... 992 61 (3.77)  2007-01-27
?(nsfw) ATTENTION YTMND: NSFW 13,189 65 (3.92)  2007-01-21
?THE FIRST FINAL BATTLE 821 30 (3.93)  2007-01-21
?fresh prince of square wave 1,258 44 (3.73)  2007-01-20
?will smith says uh what woo and haha a lot 21,070 460 (4.23)  2007-01-18
?SWEET SASSY MOLASSY 818 36 (3.64)  2007-01-17
?three things happen: jorge plays fast money, you v... 1,242 64 (4.14)  2007-01-15
?FUNNIE BAGELS WITH ZAZAZA ADDED LOL ... 2,663 37 (3.76)  2007-01-15
?Teenage Mustard Ninja Jorge Busch and Aleksand... 1,619 85 (3.76)  2007-01-06
?The World is Flat 8,438 462 (4.33)  2007-01-03
?NEW SITCOM 912 26 (3.92)  2007-01-02
?PlREEEEEEEEEase. KHAN am NOOOOOOOgof... 885 40 (3.65)  2006-12-29
?oj simpson was GUILTY 714 22 (3.45)  2006-12-28
?these rocket balloons are perfect, what more could... 1,907 27 (4.04)  2006-12-23
?(nsfw) jon carrie atemps to billd a grand carrielition in... 3,426 136 (3.69)  2006-12-22
?some person enjoys a ytmnd of an object without a ... 1,075 41 (3.80)  2006-12-21
?test site 765 35 (3.97)  2006-12-20
?Trick Shot Magic 893 33 (3.52)  2006-12-17
?WHAT WAS I THINKING? 1,515 65 (4.25)  2006-11-29
?famly um uh feyoud 655 30 (4.03)  2006-11-28
?(nsfw) DANCING SUNGLASSES 939 37 (3.70)  2006-11-28
?SHE FORGOT MY WATCH 617 32 (3.94)  2006-11-27
?jon carrie plays grand carrielition sweeper but loses ... 1,433 82 (3.98)  2006-11-24
?Jared is Gaining Weight Again 7,465 301 (3.87)  2006-11-23
?Pancake Fiction (Part 2) 728 20 (3.75)  2006-11-22
?Pancake Fiction (Part 1) 865 19 (4.05)  2006-11-21
?i put tons of effort into this 401 24 (3.75)  2006-11-20
?Jorge busch wants to buy a grand carrielition, but v... 1,212 86 (3.51)  2006-11-19
?A Very Square YTMND 617 31 (3.32)  2006-11-18
?PS3 on ebay will retail for... 7,011 85 (3.76)  2006-11-17
?Future Crocodile-O'Brien doesn't care... 860 41 (3.80)  2006-11-14
?Link finds a... what the hell is that? 1,295 36 (3.67)  2006-11-14
?Conan is...A TALK SHOW HOST 1,688 55 (4.07)  2006-11-11
?the guy who plays khan gets sick so borat plays hi... 2,835 36 (3.89)  2006-11-11
?WHICH CLOCK IS REAL 10,721 301 (3.31)  2006-11-09
?MY ENTRIE #! FOR BORAT CONTEST 1,422 48 (3.71)  2006-11-08
?HUGE TRUCK CRASH 2,040 71 (4.18)  2006-11-05
?EARTHQUAKE but some fat guy is too hungry to ... 677 20 (3.65)  2006-11-03
?Dean Wave 9,864 495 (4.35)  2006-11-01
?NBA Jam Returns 2,072 87 (3.83)  2006-10-31
?COOL MUSIC VIDEO 635 24 (3.88)  2006-10-30
?test site dont vote 936 42 (3.83)  2006-10-29
?how to eat an air conditioner in under 62 seconds 2,048 82 (3.32)  2006-10-29
?jorge busch shoots a +5 and at the same time teach... 1,344 84 (3.95)  2006-10-27
?KHAN-KHAN DANCE 702 45 (3.16)  2006-10-24
?Skating 592 23 (3.96)  2006-10-24
?(Voated5) How to prank Jon Carrie 17,508 571 (3.75)  2006-10-22
?Jared interviews some guy 966 56 (3.93)  2006-10-20
?Jared is DISGUSTED by the amount of grams 2,607 136 (3.92)  2006-10-20
?What Shaq Thinks of Kobe's CD 1,378 21 (3.76)  2006-10-19
?Alligator ate my Playmobil 1,056 33 (3.79)  2006-10-17
?SO UGLY 573 22 (3.68)  2006-10-17
?mitch hedberg tells a funny joke and the audience k... 1,168 41 (3.27)  2006-10-16
?George's Answering Machine 669 43 (3.72)  2006-10-15
?Low Budget Movie 632 28 (3.71)  2006-10-15
?ITS A TTSRAP 746 27 (4.11)  2006-10-15
?Too Much Orange Soda 908 46 (3.67)  2006-10-13
?KHAAAAAAAAAAAAAAAAAAAAAAAAA... 1,313 61 (4.13)  2006-10-11
?how jared really did it 917 34 (3.26)  2006-10-10
?Workout 829 42 (3.83)  2006-10-08
?Home Alone 5 Trailer 3,148 81 (3.49)  2006-10-07
?B.W.A. - Forgot the Polend (but not the 5s) 669 48 (3.73)  2006-10-04
?These Pretzels are Making You VOAT 5 1,404 101 (4.00)  2006-10-01
?My Relaxation Page 1,096 64 (3.61)  2006-09-29
?Jump Rope 1,139 39 (3.79)  2006-09-25
?Khan Goes to the Zoo 578 29 (3.48)  2006-09-19
?polend price is rong (part 5 of 5) 1,850 94 (3.97)  2006-09-15
?jon carrie forgot polend because of football 1,215 91 (3.62)  2006-09-09
?A New Kind of Tool 1,014 24 (3.54)  2006-09-07
?Scarface (short version) 840 27 (3.15)  2006-09-05
?Mr. Sparkle Song 3,998 49 (3.92)  2006-09-03
?(nsfw) Poland Bulls win at the buzzer (vote 5 for fa... 1,524 83 (3.89)  2006-08-29
?We're going to Poland, PLEASE VOT... 2,274 121 (3.25)  2006-08-20
?aliens polandize the world and make you vote 5 1,105 59 (3.63)  2006-08-19
?Federline Remembered Poland 3,482 113 (4.03)  2006-08-18
?Will Smith Gets 'Jiggy' with 'It&... 1,283 48 (3.46)  2006-08-13
?ce ytmnd est français 826 32 (2.16)  2006-08-12
?Daddy Jackson 607 28 (3.54)  2006-08-10
?The Who feat. Arnold - Who Are You? 15,887 439 (4.06)  2006-07-28
?Hippie Phil 3,491 39 (4.26)  2006-07-28
?Saget performs on AFV 1,052 38 (3.76)  2006-07-27
?Arnold is too strong for Price is Right 16,920 410 (4.01)  2006-07-25
?Your legacy? 1,530 38 (3.79)  2006-07-16
?What's the worst that could happen? 977 51 (3.45)  2006-07-16
?RollerCoaster Diecoon 11,925 502 (4.16)  2006-07-13
?Heffer Has No Manners (view in ie) 1,074 29 (3.38)  2006-07-12
?Tightening up graphics is a bad job 1,767 41 (3.61)  2006-07-05
?The REAL Reason the Great Wall of China was B... 15,334 500 (4.07)  2006-07-04
?Die Hard: With a Censorship 12,758 460 (4.20)  2006-04-28
?snakes on my burger 59,188 1,961 (4.32)  2006-04-03
?E.L.: Flying Lobsters 1,079 72 (3.38)  2006-03-31
?Wheres the cake? 1,394 62 (3.32)  2006-03-18
?spy on your friends! 23,690 866 (4.22)  2006-01-15
?Conan Grew a Mustache 2,336 59 (3.58)  2006-01-07
?Will Smith Buys Cheese 3,706 75 (3.73)  2005-12-27
?BINGO BANGO BONGO 1,903 49 (3.43)  2005-12-17
?YUO KHAN DO IT 5,403 105 (3.85)  2005-12-06
?"Im black yall" 8,163 83 (3.72)  2005-11-22
?push it 2,749 48 (3.15)  2005-10-05
?no idea 1,013 45 (3.02)  2005-09-24